createdAt,value
2022-08-07T00:02:41.222Z,19.10
2022-08-07T00:04:58.884Z,19.10
2022-08-07T00:07:40.860Z,19.10
2022-08-07T00:10:26.226Z,19.10
2022-08-07T00:12:57.822Z,19.00
2022-08-07T00:15:38.096Z,19.00
2022-08-07T00:18:19.863Z,19.00
2022-08-07T00:21:08.263Z,19.00
2022-08-07T00:23:55.871Z,19.00
2022-08-07T00:26:58.970Z,18.90
2022-08-07T00:29:14.142Z,18.90
2022-08-07T00:31:44.330Z,18.80
2022-08-07T00:34:17.414Z,18.80
2022-08-07T00:36:48.861Z,18.80
2022-08-07T00:39:17.353Z,18.80
2022-08-07T00:42:02.211Z,18.80
2022-08-07T00:44:33.967Z,18.80
2022-08-07T00:47:03.066Z,18.80
2022-08-07T00:50:19.611Z,18.80
2022-08-07T00:52:23.307Z,18.80
2022-08-07T00:54:53.918Z,18.80
2022-08-07T00:57:26.178Z,18.70
2022-08-07T00:59:57.646Z,18.70
2022-08-07T01:02:28.308Z,18.60
2022-08-07T01:04:58.777Z,18.60
2022-08-07T01:07:29.644Z,18.60
2022-08-07T01:10:05.959Z,18.60
2022-08-07T01:12:53.489Z,18.60
2022-08-07T01:15:35.634Z,18.60
2022-08-07T01:18:17.116Z,18.60
2022-08-07T01:20:59.378Z,18.60
2022-08-07T01:23:36.897Z,18.50
2022-08-07T01:26:16.792Z,18.50
2022-08-07T01:28:50.850Z,18.50
2022-08-07T01:31:41.780Z,18.50
2022-08-07T01:34:15.325Z,18.40
2022-08-07T01:36:43.991Z,18.40
2022-08-07T01:39:17.653Z,18.30
2022-08-07T01:42:01.495Z,18.30
2022-08-07T01:44:40.392Z,18.30
2022-08-07T01:48:16.703Z,18.20
2022-08-07T01:50:02.657Z,18.20
2022-08-07T01:52:33.442Z,18.10
2022-08-07T01:55:02.510Z,18.10
2022-08-07T01:58:01.536Z,18.10
2022-08-07T02:00:29.469Z,18.00
2022-08-07T02:03:19.054Z,18.00
2022-08-07T02:05:59.789Z,18.00
2022-08-07T02:08:38.310Z,18.00
2022-08-07T02:11:11.271Z,17.90
2022-08-07T02:14:02.529Z,17.90
2022-08-07T02:16:33.495Z,17.80
2022-08-07T02:20:04.586Z,17.80
2022-08-07T02:21:57.769Z,17.80
2022-08-07T02:24:30.660Z,17.70
2022-08-07T02:27:04.716Z,17.70
2022-08-07T02:29:43.647Z,17.70
2022-08-07T02:32:29.907Z,17.70
2022-08-07T02:35:00.974Z,17.70
2022-08-07T02:37:36.068Z,17.80
2022-08-07T02:40:29.993Z,17.80
2022-08-07T02:43:01.141Z,17.80
2022-08-07T02:46:00.918Z,17.80
2022-08-07T02:48:33.012Z,17.80
2022-08-07T02:51:14.248Z,17.80
2022-08-07T02:54:02.360Z,17.70
2022-08-07T02:56:32.926Z,17.70
2022-08-07T02:59:05.899Z,17.60
2022-08-07T03:01:40.263Z,17.60
2022-08-07T03:04:14.064Z,17.50
2022-08-07T03:06:48.357Z,17.50
2022-08-07T03:09:42.174Z,17.50
2022-08-07T03:12:11.616Z,17.50
2022-08-07T03:14:52.834Z,17.50
2022-08-07T03:17:22.104Z,17.50
2022-08-07T03:19:55.262Z,17.50
2022-08-07T03:22:29.588Z,17.50
2022-08-07T03:25:00.387Z,17.50
2022-08-07T03:28:09.263Z,17.50
2022-08-07T03:30:24.315Z,17.50
2022-08-07T03:32:58.593Z,17.50
2022-08-07T03:35:43.407Z,17.50
2022-08-07T03:38:13.562Z,17.50
2022-08-07T03:40:45.335Z,17.50
2022-08-07T03:43:32.466Z,17.50
2022-08-07T03:46:03.468Z,17.50
2022-08-07T03:48:34.007Z,17.50
2022-08-07T03:51:14.273Z,17.40
2022-08-07T03:54:05.651Z,17.40
2022-08-07T03:57:03.502Z,17.40
2022-08-07T03:59:33.097Z,17.40
2022-08-07T04:02:00.994Z,17.40
2022-08-07T04:04:28.862Z,17.40
2022-08-07T04:07:16.795Z,17.40
2022-08-07T04:09:50.533Z,17.40
2022-08-07T04:12:26.725Z,17.30
2022-08-07T04:14:59.493Z,17.30
2022-08-07T04:18:58.180Z,17.30
2022-08-07T04:20:19.813Z,17.30
2022-08-07T04:22:53.585Z,17.30
2022-08-07T04:25:24.732Z,17.40
2022-08-07T04:27:59.310Z,17.40
2022-08-07T04:30:39.303Z,17.40
2022-08-07T04:33:23.183Z,17.40
2022-08-07T04:35:54.078Z,17.40
2022-08-07T04:38:32.739Z,17.40
2022-08-07T04:41:06.188Z,17.40
2022-08-07T04:44:12.633Z,17.40
2022-08-07T04:47:04.400Z,17.40
2022-08-07T04:49:57.758Z,17.40
2022-08-07T04:52:51.404Z,17.40
2022-08-07T04:58:10.237Z,17.50
2022-08-07T04:59:18.379Z,17.50
2022-08-07T05:01:45.005Z,17.50
2022-08-07T05:04:30.647Z,17.50
2022-08-07T05:07:20.409Z,17.50
2022-08-07T05:10:02.805Z,17.50
2022-08-07T05:12:53.125Z,17.50
2022-08-07T05:15:31.449Z,17.60
2022-08-07T05:18:08.803Z,17.60
2022-08-07T05:20:42.826Z,17.60
2022-08-07T05:23:16.555Z,17.70
2022-08-07T05:26:13.401Z,17.70
2022-08-07T05:28:36.347Z,17.80
2022-08-07T05:31:16.657Z,17.80
2022-08-07T05:34:01.292Z,17.90
2022-08-07T05:36:41.467Z,18.00
2022-08-07T05:40:14.269Z,18.10
2022-08-07T05:42:12.493Z,18.10
2022-08-07T05:44:53.033Z,18.20
2022-08-07T05:47:38.248Z,18.20
2022-08-07T05:50:20.802Z,18.30
2022-08-07T05:52:50.405Z,18.40
2022-08-07T05:55:20.858Z,18.50
2022-08-07T05:57:51.460Z,18.60
2022-08-07T06:00:19.828Z,18.70
2022-08-07T06:02:56.554Z,18.80
2022-08-07T06:05:29.848Z,19.00
2022-08-07T06:08:14.612Z,19.10
2022-08-07T06:10:52.011Z,19.30
2022-08-07T06:14:10.741Z,19.50
2022-08-07T06:16:10.340Z,19.60
2022-08-07T06:18:43.353Z,19.80
2022-08-07T06:22:15.415Z,19.90
2022-08-07T06:24:38.269Z,20.10
2022-08-07T06:27:03.517Z,20.20
2022-08-07T06:29:34.258Z,20.30
2022-08-07T06:32:04.228Z,20.50
2022-08-07T06:34:32.198Z,20.60
2022-08-07T06:37:03.151Z,20.70
2022-08-07T06:40:16.632Z,20.80
2022-08-07T06:42:35.083Z,20.90
2022-08-07T06:45:22.417Z,21.00
2022-08-07T06:47:58.668Z,21.10
2022-08-07T06:50:48.684Z,21.20
2022-08-07T06:54:12.047Z,21.20
2022-08-07T06:56:16.889Z,21.30
2022-08-07T07:00:11.707Z,21.40
2022-08-07T07:01:48.889Z,21.50
2022-08-07T07:04:33.016Z,21.60
2022-08-07T07:07:10.648Z,21.60
2022-08-07T07:09:57.076Z,21.80
2022-08-07T07:12:35.530Z,21.80
2022-08-07T07:15:23.818Z,21.90
2022-08-07T07:17:58.125Z,22.00
2022-08-07T07:20:33.789Z,22.10
2022-08-07T07:24:08.577Z,22.20
2022-08-07T07:26:34.857Z,22.20
2022-08-07T07:29:40.185Z,22.30
2022-08-07T07:31:49.770Z,22.30
2022-08-07T07:34:32.003Z,22.40
2022-08-07T07:37:05.392Z,22.50
2022-08-07T07:39:52.314Z,22.50
2022-08-07T07:42:26.019Z,22.50
2022-08-07T07:45:06.035Z,22.60
2022-08-07T07:47:43.033Z,22.70
2022-08-07T07:50:36.531Z,22.70
2022-08-07T07:53:20.143Z,22.70
2022-08-07T07:55:54.642Z,22.80
2022-08-07T07:58:40.339Z,22.90
2022-08-07T08:02:03.336Z,23.00
2022-08-07T08:04:09.798Z,23.10
2022-08-07T08:06:45.150Z,23.10
2022-08-07T08:09:29.242Z,23.10
2022-08-07T08:12:01.764Z,23.20
2022-08-07T08:14:34.338Z,23.20
2022-08-07T08:17:55.760Z,23.30
2022-08-07T08:23:01.456Z,23.50
2022-08-07T08:25:52.217Z,23.70
2022-08-07T08:28:37.986Z,23.80
2022-08-07T08:31:15.819Z,23.90
2022-08-07T08:33:49.391Z,24.00
2022-08-07T08:36:29.650Z,24.00
2022-08-07T08:39:02.198Z,24.00
2022-08-07T08:41:58.314Z,24.00
2022-08-07T08:45:04.248Z,23.90
2022-08-07T08:47:56.071Z,24.00
2022-08-07T08:50:45.431Z,24.10
2022-08-07T08:54:00.978Z,24.20
2022-08-07T08:57:00.232Z,24.30
2022-08-07T09:00:28.810Z,24.30
2022-08-07T09:03:23.049Z,24.40
2022-08-07T09:06:19.660Z,24.70
2022-08-07T09:09:13.417Z,25.00
2022-08-07T09:12:31.361Z,25.20
2022-08-07T09:16:21.958Z,25.30
2022-08-07T09:19:03.466Z,25.40
2022-08-07T09:22:22.970Z,25.60
2022-08-07T09:24:58.658Z,25.70
2022-08-07T09:27:59.545Z,25.90
2022-08-07T09:31:07.394Z,26.10
2022-08-07T09:33:58.205Z,26.10
2022-08-07T09:36:37.053Z,26.10
2022-08-07T09:39:57.970Z,26.00
2022-08-07T09:42:51.918Z,26.00
2022-08-07T09:47:25.881Z,25.70
2022-08-07T09:50:02.530Z,25.50
2022-08-07T09:52:15.509Z,25.30
2022-08-07T09:55:16.931Z,25.50
2022-08-07T09:58:31.973Z,25.70
2022-08-07T10:01:51.692Z,26.00
2022-08-07T10:04:53.129Z,26.00
2022-08-07T10:07:52.364Z,26.00
2022-08-07T10:11:59.818Z,26.00
2022-08-07T10:14:01.294Z,26.00
2022-08-07T10:16:39.410Z,26.10
2022-08-07T10:19:27.502Z,26.30
2022-08-07T10:22:46.164Z,26.30
2022-08-07T10:25:51.920Z,26.30
2022-08-07T10:28:39.165Z,26.30
2022-08-07T10:31:49.068Z,26.30
2022-08-07T10:52:51.552Z,26.90
2022-08-07T10:55:41.556Z,27.00
2022-08-07T10:58:40.366Z,26.90
2022-08-07T11:01:23.649Z,27.00
2022-08-07T11:04:17.070Z,27.20
2022-08-07T11:07:03.773Z,27.30
2022-08-07T11:10:07.661Z,27.30
2022-08-07T11:13:02.176Z,27.50
2022-08-07T11:15:33.024Z,27.70
2022-08-07T11:18:05.904Z,27.70
2022-08-07T11:20:47.060Z,27.70
2022-08-07T11:23:38.694Z,27.60
2022-08-07T11:26:14.373Z,27.60
2022-08-07T11:28:51.334Z,27.70
2022-08-07T11:31:27.276Z,27.80
2022-08-07T11:34:00.973Z,27.80
2022-08-07T11:37:03.598Z,27.80
2022-08-07T11:40:00.450Z,27.80
2022-08-07T11:42:40.981Z,27.80
2022-08-07T11:45:15.614Z,27.80
2022-08-07T11:48:31.252Z,27.80
2022-08-07T11:51:41.476Z,27.70
2022-08-07T11:54:30.014Z,27.70
2022-08-07T11:57:59.665Z,27.70
2022-08-07T12:00:28.371Z,27.80
2022-08-07T12:03:45.037Z,27.90
2022-08-07T12:06:39.165Z,28.00
2022-08-07T12:09:25.082Z,28.10
2022-08-07T12:12:10.782Z,28.20
2022-08-07T12:15:03.769Z,28.20
2022-08-07T12:17:59.054Z,28.10
2022-08-07T12:20:43.068Z,28.10
2022-08-07T12:23:37.353Z,28.10
2022-08-07T12:26:35.432Z,28.10
2022-08-07T12:29:46.955Z,28.10
2022-08-07T12:32:51.744Z,28.10
2022-08-07T12:35:20.693Z,28.10
2022-08-07T12:38:11.338Z,27.90
2022-08-07T12:40:47.581Z,27.90
2022-08-07T12:44:02.888Z,27.90
2022-08-07T12:46:32.506Z,28.20
2022-08-07T12:49:25.653Z,28.30
2022-08-07T12:52:17.995Z,28.30
2022-08-07T12:55:05.263Z,28.30
2022-08-07T12:57:39.077Z,28.30
2022-08-07T13:00:35.837Z,28.40
2022-08-07T13:04:02.431Z,28.60
2022-08-07T13:07:00.182Z,28.80
2022-08-07T13:10:19.880Z,29.10
2022-08-07T13:13:09.521Z,29.20
2022-08-07T13:16:02.230Z,29.20
2022-08-07T13:18:58.556Z,29.30
2022-08-07T13:22:19.681Z,29.30
2022-08-07T13:24:56.945Z,29.50
2022-08-07T13:28:06.262Z,29.50
2022-08-07T13:30:19.679Z,29.40
2022-08-07T13:34:32.730Z,29.40
2022-08-07T13:36:45.286Z,29.50
2022-08-07T13:40:32.904Z,29.50
2022-08-07T13:42:25.088Z,29.50
2022-08-07T13:44:55.447Z,29.40
2022-08-07T13:48:05.576Z,29.30
2022-08-07T13:50:35.277Z,29.30
2022-08-07T13:53:21.084Z,29.30
2022-08-07T13:55:54.407Z,29.20
2022-08-07T13:58:50.397Z,29.10
2022-08-07T14:01:26.226Z,28.90
2022-08-07T14:04:07.603Z,28.70
2022-08-07T14:06:38.983Z,28.70
2022-08-07T14:09:16.985Z,28.60
2022-08-07T14:12:07.281Z,28.50
2022-08-07T14:14:43.628Z,28.40
2022-08-07T14:17:51.647Z,28.40
2022-08-07T14:20:42.032Z,28.40
2022-08-07T14:23:31.217Z,28.20
2022-08-07T14:26:28.071Z,28.20
2022-08-07T14:29:06.048Z,28.20
2022-08-07T14:31:43.448Z,28.40
2022-08-07T14:34:29.685Z,28.40
2022-08-07T14:37:03.475Z,28.50
2022-08-07T14:40:16.828Z,28.60
2022-08-07T14:42:31.459Z,28.80
2022-08-07T14:45:21.457Z,28.90
2022-08-07T14:47:51.144Z,29.00
2022-08-07T14:50:22.593Z,29.20
2022-08-07T14:52:54.318Z,29.10
2022-08-07T14:55:23.332Z,29.00
2022-08-07T14:57:58.110Z,28.80
2022-08-07T15:00:37.971Z,28.80
2022-08-07T15:03:18.772Z,28.70
2022-08-07T15:08:50.379Z,28.70
2022-08-07T15:14:20.608Z,28.80
2022-08-07T15:16:55.138Z,29.00
2022-08-07T15:20:30.405Z,28.90
2022-08-07T15:25:17.236Z,28.60
2022-08-07T15:28:01.923Z,28.60
2022-08-07T15:30:36.599Z,28.60
2022-08-07T15:33:33.469Z,28.70
2022-08-07T15:36:07.767Z,28.60
2022-08-07T15:38:58.753Z,28.60
2022-08-07T15:42:44.078Z,28.50
2022-08-07T15:44:17.200Z,28.50
2022-08-07T15:46:52.636Z,28.60
2022-08-07T15:52:20.789Z,28.70
2022-08-07T15:54:49.500Z,28.70
2022-08-07T15:57:28.174Z,28.80
2022-08-07T16:00:08.695Z,28.80
2022-08-07T16:02:57.666Z,28.90
2022-08-07T16:05:31.322Z,29.00
2022-08-07T16:08:31.125Z,29.00
2022-08-07T16:11:04.708Z,29.00
2022-08-07T16:14:12.845Z,29.00
2022-08-07T16:17:16.207Z,29.10
2022-08-07T16:20:03.718Z,29.00
2022-08-07T16:22:55.566Z,29.00
2022-08-07T16:25:54.982Z,28.90
2022-08-07T16:30:07.090Z,29.00
2022-08-07T16:31:51.429Z,28.80
2022-08-07T16:34:41.866Z,28.60
2022-08-07T16:38:05.811Z,28.60
2022-08-07T16:40:33.930Z,28.50
2022-08-07T16:44:03.929Z,28.60
2022-08-07T16:47:05.904Z,28.60
2022-08-07T16:50:27.972Z,28.60
2022-08-07T16:52:51.707Z,28.60
2022-08-07T16:55:47.925Z,28.30
2022-08-07T16:59:11.344Z,28.10
2022-08-07T17:01:51.712Z,28.00
2022-08-07T17:04:58.991Z,27.80
2022-08-07T17:07:55.192Z,27.80
2022-08-07T17:10:43.954Z,28.00
2022-08-07T17:13:41.786Z,28.40
2022-08-07T17:16:25.745Z,28.60
2022-08-07T17:18:53.613Z,28.90
2022-08-07T17:21:51.100Z,29.10
2022-08-07T17:24:50.109Z,29.40
2022-08-07T17:27:50.827Z,29.60
2022-08-07T17:30:26.585Z,29.90
2022-08-07T17:33:39.134Z,30.00
2022-08-07T17:36:58.022Z,30.30
2022-08-07T17:39:58.664Z,30.60
2022-08-07T17:42:59.077Z,30.70
2022-08-07T17:45:43.552Z,30.80
2022-08-07T17:48:30.431Z,31.00
2022-08-07T17:51:59.861Z,30.80
2022-08-07T17:54:53.169Z,30.20
2022-08-07T17:57:58.342Z,29.30
2022-08-07T18:00:33.104Z,28.40
2022-08-07T18:03:18.715Z,27.80
2022-08-07T18:06:03.535Z,27.30
2022-08-07T18:09:05.476Z,26.90
2022-08-07T18:12:19.354Z,26.60
2022-08-07T18:15:22.700Z,26.20
2022-08-07T18:18:46.956Z,25.80
2022-08-07T18:21:12.329Z,25.60
2022-08-07T18:23:58.515Z,25.30
2022-08-07T18:26:59.828Z,25.10
2022-08-07T18:30:05.572Z,24.90
2022-08-07T18:33:27.014Z,24.70
2022-08-07T18:36:14.280Z,24.50
2022-08-07T18:40:09.007Z,24.40
2022-08-07T18:42:21.410Z,24.20
2022-08-07T18:45:44.735Z,24.10
2022-08-07T18:48:05.805Z,24.00
2022-08-07T18:50:48.699Z,24.00
2022-08-07T18:53:46.629Z,23.90
2022-08-07T18:56:31.465Z,23.80
2022-08-07T18:59:47.649Z,23.70
2022-08-07T19:02:42.441Z,23.70
2022-08-07T19:06:02.596Z,23.60
2022-08-07T19:08:46.345Z,23.60
2022-08-07T19:11:35.739Z,23.50
2022-08-07T19:14:29.886Z,23.40
2022-08-07T19:17:06.662Z,23.30
2022-08-07T19:20:29.966Z,23.30
2022-08-07T19:23:20.475Z,23.20
2022-08-07T19:26:28.693Z,23.10
2022-08-07T19:30:54.705Z,23.00
2022-08-07T19:32:17.061Z,22.90
2022-08-07T19:34:55.267Z,22.90
2022-08-07T19:37:24.215Z,22.90
2022-08-07T19:40:14.091Z,22.80
2022-08-07T19:42:43.124Z,22.80
2022-08-07T19:46:05.056Z,22.80
2022-08-07T19:48:18.666Z,22.70
2022-08-07T19:50:53.453Z,22.70
2022-08-07T19:54:33.549Z,22.60
2022-08-07T19:57:51.830Z,22.60
2022-08-07T19:59:02.504Z,22.60
2022-08-07T20:01:52.658Z,22.60
2022-08-07T20:04:46.296Z,22.60
2022-08-07T20:07:23.884Z,22.60
2022-08-07T20:10:37.839Z,22.50
2022-08-07T20:13:02.167Z,22.40
2022-08-07T20:15:39.755Z,22.40
2022-08-07T20:18:18.085Z,22.30
2022-08-07T20:21:00.541Z,22.30
2022-08-07T20:23:51.863Z,22.20
2022-08-07T20:26:29.886Z,22.20
2022-08-07T20:29:46.969Z,22.10
2022-08-07T20:32:11.589Z,22.10
2022-08-07T20:35:00.951Z,22.10
2022-08-07T20:37:57.817Z,22.20
2022-08-07T20:40:33.084Z,22.10
2022-08-07T20:43:09.651Z,22.10
2022-08-07T20:46:26.043Z,22.00
2022-08-07T20:49:53.915Z,21.90
2022-08-07T20:51:53.879Z,21.90
2022-08-07T20:54:30.174Z,21.90
2022-08-07T20:57:08.276Z,21.80
2022-08-07T21:00:07.973Z,21.80
2022-08-07T21:03:01.484Z,21.70
2022-08-07T21:05:50.796Z,21.70
2022-08-07T21:08:37.862Z,21.70
2022-08-07T21:11:29.008Z,21.70
2022-08-07T21:14:34.326Z,21.70
2022-08-07T21:18:03.235Z,21.60
2022-08-07T21:20:19.074Z,21.60
2022-08-07T21:23:08.182Z,21.50
2022-08-07T21:25:56.547Z,21.50
2022-08-07T21:28:50.417Z,21.40
2022-08-07T21:31:49.326Z,21.40
2022-08-07T21:34:46.101Z,21.40
2022-08-07T21:37:59.231Z,21.40
2022-08-07T21:40:50.215Z,21.40
2022-08-07T21:43:55.099Z,21.40
2022-08-07T21:46:56.379Z,21.40
2022-08-07T21:50:01.927Z,21.40
2022-08-07T21:53:01.034Z,21.40
2022-08-07T21:56:03.899Z,21.40
2022-08-07T21:58:56.569Z,21.50
2022-08-07T22:02:10.888Z,21.50
2022-08-07T22:04:26.444Z,21.50
2022-08-07T22:07:02.537Z,21.50
2022-08-07T22:09:54.368Z,21.50
2022-08-07T22:12:47.762Z,21.40
2022-08-07T22:16:39.248Z,21.30
2022-08-07T22:18:38.142Z,21.20
2022-08-07T22:21:21.720Z,21.20
2022-08-07T22:24:18.248Z,21.20
2022-08-07T22:26:54.391Z,21.10
2022-08-07T22:29:49.788Z,21.10
2022-08-07T22:33:09.374Z,21.00
2022-08-07T22:35:55.286Z,21.00
2022-08-07T22:38:51.889Z,21.00
2022-08-07T22:42:03.280Z,21.00
2022-08-07T22:44:25.630Z,20.90
2022-08-07T22:47:27.980Z,20.90
2022-08-07T22:50:29.156Z,20.90
2022-08-07T22:54:06.746Z,20.90
2022-08-07T22:56:33.585Z,20.90
2022-08-07T22:59:21.282Z,20.80
2022-08-07T23:02:27.559Z,20.80
2022-08-07T23:06:14.864Z,20.80
2022-08-07T23:08:46.811Z,20.70
2022-08-07T23:11:45.710Z,20.70
2022-08-07T23:14:16.152Z,20.70
2022-08-07T23:17:08.898Z,20.60
2022-08-07T23:20:05.922Z,20.60
2022-08-07T23:22:40.243Z,20.60
2022-08-07T23:25:34.421Z,20.50
2022-08-07T23:28:32.950Z,20.50
2022-08-07T23:32:49.514Z,20.50
2022-08-07T23:34:39.887Z,20.50
2022-08-07T23:38:01.951Z,20.50
2022-08-07T23:40:53.456Z,20.50
2022-08-07T23:43:38.950Z,20.40
2022-08-07T23:46:27.145Z,20.40
2022-08-07T23:49:03.385Z,20.30
2022-08-07T23:53:16.958Z,20.30
2022-08-07T23:54:36.031Z,20.30
2022-08-07T23:57:28.442Z,20.30
